Airfield :
LOGIN :

Register | Disclaimer

   EN    FR    IT 

 










Legend :    VFR   Marginal VFR   IFR   Intensive IFR   Very Intensive IFR
Visi :
Ceiling :
>= 8 km
>= 3000ft
5 to 8 km
1000 to 3000 ft
1500m to 5 km
500 to 1000 ft
800 to 1500m
200 to 500 ft
< 800m
< 200 ft
Symbols :   Thunderstorms  Fog  Heavy snow  Heavy precipitations  Wind > 20 kt
SIGMETs :     Misc.  Thunderstorms  Icing  Turbulence  Mountain Waves  Volcanic Ashes






- Airport Elevation : 392 ft
- IATA code : CDG


LFPG - Paris-Aeroport Charles De Gaulle

CURRENT METAR :
  • 232130Z 09009KT 7000 NSC 15/13 Q1007 NOSIG

EXPIRED METARs :
  • 232100Z 08010KT 6000 NSC 14/13 Q1007 NOSIG
  • 232030Z 10007KT 6000 NSC 14/13 Q1008 NOSIG
  • 232000Z 08009KT 6000 NSC 14/12 Q1008 NOSIG
  • 231930Z 11010KT 6000 NSC 14/13 Q1009 NOSIG
  • 231900Z VRB03KT 7000 NSC 13/12 Q1008 NOSIG

TAF TAF LFPG
Valid from the 23 at 18:00 until the 25 at 00:00 UTC


231700Z 2318/2424 14010KT 7000 NSC TX17/2412Z TN12/2424Z
BECMG 2320/2323 4000 BR
TEMPO 2323/2403 2000 BR
BECMG 2403/2406 8000 NSW
BECMG 2408/2411 20015KT
PROB40
TEMPO 2408/2411 BKN008
TEMPO 2411/2417 20015G30KT 3000 SHRA BKN012TCU
PROB40
TEMPO 2421/2424 BKN008
ATIS : +33 1 48 62 10 92



MET'MAP, your aeronautical weather chart ! - Copyright ORBIFLY December 2007 - Disclaimer

ORBIFLY MET'MAP TEAM :

Programming & Development : Alexandra Zaïnal
Concept & Development : Baudouin d'Aumeries
Co-Development & Prog : Marc-Olivier Méhu
Technical & hardware support : Manuel Goepfert

Contact : metmap@orbifly.com




SOURCES & CREDITS :

   NOAA